Pagina principale
METAR-TAF:

METAR-TAF

Aeroporti :

Monte Malanotte

Prato Nevoso, Italia

latitudine: 44-15N, longitudine: 007-48E, altezza: 1741 m

Osservazione

Il bollettino è stato emesso 1 ora e 14 minuti fa, alle 08:55 UTC
Vento 3 kt da ovest/sud-ovest
Temperature 2°C
Umidità 93%
Pressione 1022 hPa
Visibilità: 7000 m
Poco nuvoloso ad un'altezza di 2600 ft

METAR: LIMY 180855Z 24003KT 7000 FEW026 02/01 Q1022 RMK BKN BKN070 VAL FOSCHIA VIS MIN 7000

Ora: 11:09 (10:09 UTC)


TAF: mancante

Osservazioni e previsioni meteorologiche di più di 4000 aeroporti (messaggi METAR e TAF).

Le stazioni disponibili sono rappresentate dai dischi gialli e rossi sulla carta.

Puntare il mouse per vedere il nome della stazione.

Clicca sopra per visualizzare le osservazioni e previsioni meteorologiche.

Per cambiare la mappa : fare clic sui pulsanti verdi con una croce nera per ingrandire, il pulsante verde con un trattino per diminuire, o sulla freccia verde per le mappe adiacenti.


METAR-TAF: